createdAt,value
2019-05-06T00:03:06.190Z,10.60
2019-05-06T00:08:08.263Z,10.57
2019-05-06T00:13:10.313Z,10.55
2019-05-06T00:18:13.894Z,10.58
2019-05-06T00:23:21.768Z,10.62
2019-05-06T00:28:29.375Z,10.68
2019-05-06T00:33:31.409Z,10.73
2019-05-06T00:38:34.168Z,10.81
2019-05-06T00:43:36.356Z,10.88
2019-05-06T00:48:38.547Z,10.94
2019-05-06T00:53:44.185Z,11.02
2019-05-06T00:58:46.288Z,11.03
2019-05-06T01:03:48.383Z,11.08
2019-05-06T01:08:50.443Z,11.10
2019-05-06T01:14:04.204Z,11.17
2019-05-06T01:19:06.267Z,11.23
2019-05-06T01:24:08.297Z,11.29
2019-05-06T01:29:10.375Z,11.33
2019-05-06T01:34:13.771Z,11.38
2019-05-06T01:39:34.147Z,11.37
2019-05-06T01:44:36.314Z,11.40
2019-05-06T01:49:38.393Z,11.36
2019-05-06T01:54:40.448Z,11.32
2019-05-06T01:59:44.370Z,11.32
2019-05-06T02:04:46.527Z,11.32
2019-05-06T02:09:48.555Z,11.25
2019-05-06T02:14:50.621Z,11.28
2019-05-06T02:19:54.654Z,11.26
2019-05-06T02:25:05.040Z,11.23
2019-05-06T02:30:30.245Z,11.18
2019-05-06T02:35:36.983Z,11.09
2019-05-06T02:40:39.019Z,11.06
2019-05-06T02:45:43.307Z,10.95
2019-05-06T02:51:03.410Z,10.80
2019-05-06T02:56:04.923Z,10.70
2019-05-06T03:01:07.026Z,10.50
2019-05-06T03:06:09.087Z,10.43
2019-05-06T03:11:13.559Z,10.31
2019-05-06T03:16:15.118Z,10.24
2019-05-06T03:21:29.874Z,10.24
2019-05-06T03:26:33.181Z,10.23
2019-05-06T03:31:36.663Z,10.15
2019-05-06T03:36:41.004Z,10.12
2019-05-06T03:41:43.686Z,10.07
2019-05-06T03:47:05.774Z,9.99
2019-05-06T03:52:08.039Z,9.94
2019-05-06T03:57:13.684Z,9.82
2019-05-06T04:02:15.512Z,9.77
2019-05-06T04:07:19.239Z,9.74
2019-05-06T04:12:23.394Z,9.71
2019-05-06T04:17:43.874Z,9.71
2019-05-06T04:22:53.189Z,9.73
2019-05-06T04:27:57.933Z,9.73
2019-05-06T04:33:03.117Z,9.72
2019-05-06T04:38:04.235Z,9.73
2019-05-06T04:43:06.270Z,9.78
2019-05-06T04:48:08.510Z,9.86
2019-05-06T04:53:13.461Z,9.92
2019-05-06T04:58:14.932Z,9.96
2019-05-06T05:03:17.106Z,10.12
2019-05-06T05:08:22.345Z,10.59
2019-05-06T05:13:49.750Z,11.51
2019-05-06T05:18:56.081Z,13.22
2019-05-06T05:23:58.266Z,16.18
2019-05-06T05:29:02.573Z,17.93
2019-05-06T05:34:04.551Z,19.22
2019-05-06T05:39:07.363Z,20.43
2019-05-06T05:44:14.589Z,21.57
2019-05-06T05:49:28.797Z,22.71
2019-05-06T05:54:32.987Z,23.63
2019-05-06T05:59:34.813Z,24.46
2019-05-06T06:04:36.892Z,25.14
2019-05-06T06:09:47.700Z,25.84
2019-05-06T06:15:12.698Z,26.60
2019-05-06T06:20:33.851Z,27.09
2019-05-06T06:25:35.959Z,27.61
2019-05-06T06:30:47.669Z,28.02
2019-05-06T06:35:56.816Z,28.25
2019-05-06T06:40:58.947Z,28.37
2019-05-06T06:46:02.465Z,28.11
2019-05-06T06:51:04.743Z,28.26
2019-05-06T06:56:29.182Z,28.19
2019-05-06T07:01:36.880Z,27.76
2019-05-06T07:06:43.103Z,27.06
2019-05-06T07:11:45.175Z,25.00
2019-05-06T07:16:47.239Z,25.19
2019-05-06T07:21:53.442Z,24.69
2019-05-06T07:27:15.115Z,23.36
2019-05-06T07:32:17.170Z,22.35
2019-05-06T07:37:19.357Z,21.66
2019-05-06T07:42:27.175Z,20.69
2019-05-06T07:47:37.561Z,20.30
2019-05-06T07:52:42.161Z,19.58
2019-05-06T07:57:56.937Z,19.26
2019-05-06T08:02:59.005Z,18.91
2019-05-06T08:08:03.439Z,18.66
2019-05-06T08:13:05.203Z,18.37
2019-05-06T08:18:07.277Z,17.90
2019-05-06T08:23:17.817Z,17.51
2019-05-06T08:28:22.389Z,17.25
2019-05-06T08:33:23.822Z,17.07
2019-05-06T08:38:25.899Z,17.40
2019-05-06T08:43:28.105Z,17.45
2019-05-06T08:48:32.391Z,17.21
2019-05-06T08:53:44.756Z,16.83
2019-05-06T08:58:47.567Z,16.79
2019-05-06T09:04:05.033Z,16.68
2019-05-06T09:08:56.959Z,16.58
2019-05-06T09:13:59.202Z,16.48
2019-05-06T09:19:04.447Z,16.42
2019-05-06T09:24:06.221Z,16.50
2019-05-06T09:29:14.899Z,16.52
2019-05-06T09:34:39.436Z,16.59
2019-05-06T09:39:44.708Z,16.63
2019-05-06T09:44:50.276Z,16.26
2019-05-06T09:49:52.865Z,16.13
2019-05-06T09:55:03.305Z,16.03
2019-05-06T10:00:06.831Z,15.79
2019-05-06T10:05:09.098Z,15.60
2019-05-06T10:10:11.421Z,15.56
2019-05-06T10:15:13.521Z,15.51
2019-05-06T10:20:15.808Z,15.46
2019-05-06T10:25:17.876Z,15.39
2019-05-06T10:30:19.903Z,15.34
2019-05-06T10:35:23.188Z,15.18
2019-05-06T10:40:32.931Z,15.17
2019-05-06T10:45:35.326Z,15.27
2019-05-06T10:50:43.009Z,15.38
2019-05-06T10:55:49.635Z,15.43
2019-05-06T11:01:12.572Z,15.53
2019-05-06T11:06:16.702Z,15.66
2019-05-06T11:11:31.594Z,15.99
2019-05-06T11:16:23.716Z,16.40
2019-05-06T11:21:26.218Z,16.44
2019-05-06T11:26:28.411Z,16.46
2019-05-06T11:31:43.362Z,16.49
2019-05-06T11:36:48.858Z,16.55
2019-05-06T11:42:06.241Z,16.50
2019-05-06T11:46:54.969Z,16.74
2019-05-06T11:51:57.032Z,16.73
2019-05-06T11:57:02.921Z,16.90
2019-05-06T12:02:06.045Z,17.10
2019-05-06T12:07:15.229Z,17.04
2019-05-06T12:12:12.846Z,17.13
2019-05-06T12:17:15.097Z,17.17
2019-05-06T12:22:17.120Z,17.27
2019-05-06T12:27:37.429Z,17.31
2019-05-06T12:32:45.898Z,17.22
2019-05-06T12:37:53.033Z,17.24
2019-05-06T12:43:14.626Z,17.18
2019-05-06T12:48:26.354Z,17.07
2019-05-06T12:53:28.440Z,17.00
2019-05-06T12:58:30.479Z,17.08
2019-05-06T13:03:34.844Z,17.10
2019-05-06T13:08:54.075Z,17.18
2019-05-06T13:13:55.570Z,17.15
2019-05-06T13:18:47.721Z,17.08
2019-05-06T13:23:52.557Z,17.11
2019-05-06T13:28:58.867Z,16.96
2019-05-06T13:34:05.628Z,16.81
2019-05-06T13:39:14.264Z,16.69
2019-05-06T13:44:13.512Z,16.52
2019-05-06T13:49:34.351Z,16.47
2019-05-06T13:54:36.825Z,16.46
2019-05-06T13:59:39.105Z,16.35
2019-05-06T14:04:44.279Z,16.46
2019-05-06T14:09:48.897Z,16.24
2019-05-06T14:14:53.783Z,16.12
2019-05-06T14:19:55.881Z,16.20
2019-05-06T14:25:33.127Z,16.18
2019-05-06T14:30:53.775Z,16.22
2019-05-06T14:35:56.043Z,16.13
2019-05-06T14:41:13.118Z,16.20
2019-05-06T14:46:14.866Z,16.24
2019-05-06T14:51:17.254Z,16.30
2019-05-06T14:56:25.606Z,16.29
2019-05-06T15:01:27.685Z,16.29
2019-05-06T15:06:29.930Z,16.36
2019-05-06T15:11:32.538Z,16.35
2019-05-06T15:16:35.071Z,16.33
2019-05-06T15:21:38.783Z,16.29
2019-05-06T15:26:52.033Z,16.20
2019-05-06T15:32:05.741Z,16.13
2019-05-06T15:37:16.943Z,16.11
2019-05-06T15:42:19.007Z,16.00
2019-05-06T15:47:22.724Z,16.05
2019-05-06T15:52:25.056Z,15.97
2019-05-06T15:57:27.210Z,16.04
2019-05-06T16:02:29.299Z,16.04
2019-05-06T16:07:34.999Z,16.08
2019-05-06T16:12:36.536Z,16.07
2019-05-06T16:17:38.673Z,16.05
2019-05-06T16:22:44.190Z,15.96
2019-05-06T16:27:51.039Z,15.85
2019-05-06T16:32:52.662Z,15.89
2019-05-06T16:37:55.022Z,15.85
2019-05-06T16:42:57.113Z,15.84
2019-05-06T16:47:59.156Z,15.84
2019-05-06T16:53:02.728Z,15.82
2019-05-06T16:58:10.119Z,15.79
2019-05-06T17:03:17.936Z,15.69
2019-05-06T17:08:23.349Z,15.57
2019-05-06T17:13:25.189Z,15.46
2019-05-06T17:18:28.507Z,15.47
2019-05-06T17:23:32.422Z,15.39
2019-05-06T17:28:52.560Z,15.29
2019-05-06T17:33:56.136Z,15.19
2019-05-06T17:38:58.232Z,15.11
2019-05-06T17:44:02.293Z,15.08
2019-05-06T17:49:17.372Z,15.12
2019-05-06T17:54:19.635Z,15.12
2019-05-06T17:59:21.677Z,15.05
2019-05-06T18:04:23.988Z,15.00
2019-05-06T18:09:26.056Z,15.00
2019-05-06T18:14:28.255Z,14.90
2019-05-06T18:19:30.377Z,14.84
2019-05-06T18:24:33.227Z,14.73
2019-05-06T18:29:36.011Z,14.63
2019-05-06T18:34:38.085Z,14.47
2019-05-06T18:39:42.333Z,14.33
2019-05-06T18:44:44.234Z,14.20
2019-05-06T18:49:46.264Z,14.10
2019-05-06T18:54:48.304Z,14.04
2019-05-06T18:59:50.395Z,14.05
2019-05-06T19:05:02.412Z,14.01
2019-05-06T19:10:09.248Z,14.00
2019-05-06T19:15:12.662Z,13.93
2019-05-06T19:20:15.234Z,13.89
2019-05-06T19:25:17.327Z,13.87
2019-05-06T19:30:19.692Z,13.84
2019-05-06T19:35:21.735Z,13.77
2019-05-06T19:40:23.900Z,13.75
2019-05-06T19:45:26.023Z,13.73
2019-05-06T19:50:28.113Z,13.70
2019-05-06T19:55:30.144Z,13.68
2019-05-06T20:00:32.629Z,13.64
2019-05-06T20:05:54.722Z,13.59
2019-05-06T20:11:09.752Z,13.57
2019-05-06T20:16:12.441Z,13.54
2019-05-06T20:21:14.671Z,13.50
2019-05-06T20:26:16.750Z,13.46
2019-05-06T20:31:22.488Z,13.41
2019-05-06T20:36:24.566Z,13.32
2019-05-06T20:41:26.567Z,13.32
2019-05-06T20:46:28.690Z,13.28
2019-05-06T20:51:32.848Z,13.25
2019-05-06T20:56:34.803Z,13.20
2019-05-06T21:01:36.974Z,13.22
2019-05-06T21:06:39.083Z,13.18
2019-05-06T21:11:42.149Z,13.16
2019-05-06T21:16:44.487Z,13.14
2019-05-06T21:21:46.543Z,13.02
2019-05-06T21:26:48.625Z,12.94
2019-05-06T21:31:52.966Z,12.84
2019-05-06T21:36:54.752Z,12.76
2019-05-06T21:41:56.862Z,12.67
2019-05-06T21:46:58.975Z,12.55
2019-05-06T21:52:02.128Z,12.43
2019-05-06T21:57:04.536Z,12.31
2019-05-06T22:02:07.949Z,12.20
2019-05-06T22:07:12.022Z,12.09
2019-05-06T22:12:13.984Z,12.01
2019-05-06T22:17:16.057Z,11.91
2019-05-06T22:22:20.535Z,11.83
2019-05-06T22:27:25.196Z,11.76
2019-05-06T22:32:27.256Z,11.72
2019-05-06T22:37:29.360Z,11.67
2019-05-06T22:42:32.288Z,11.59
2019-05-06T22:47:34.574Z,11.52
2019-05-06T22:52:36.624Z,11.46
2019-05-06T22:57:38.810Z,11.43
2019-05-06T23:02:52.728Z,11.40
2019-05-06T23:07:54.960Z,11.37
2019-05-06T23:12:57.006Z,11.33
2019-05-06T23:17:59.090Z,11.28
2019-05-06T23:23:02.419Z,11.26
2019-05-06T23:28:05.177Z,11.23
2019-05-06T23:33:07.376Z,11.13
2019-05-06T23:38:46.057Z,11.17
2019-05-06T23:44:24.660Z,11.14
2019-05-06T23:50:03.756Z,11.08
2019-05-06T23:55:44.157Z,11.06
